Time;durP1;ratioP1;P1;durP2;ratioP2;P2;SDS_P1;SDS_P2;PMS_P1;PMS_P2;Temp;Humidity;BMP_temperature;BMP_pressure;BME280_temperature;BME280_humidity;BME280_pressure;Samples;Min_cycle;Max_cycle;Signal;HPM_P1;HPM_P2
2022/09/11 00:01:30;;;;;;;5.13;3.35;;;26.30;99.90;;;;;;5047060;28;20103;-71
2022/09/11 00:03:58;;;;;;;11.73;3.28;;;26.30;99.90;;;;;;5030333;28;20068;-71
2022/09/11 00:06:26;;;;;;;6.97;2.80;;;26.20;99.90;;;;;;5039696;28;20054;-73
2022/09/11 00:08:59;;;;;;;7.20;3.40;;;26.20;99.90;;;;;;5039033;28;20044;-72
2022/09/11 00:11:31;;;;;;;9.60;3.03;;;26.20;99.90;;;;;;5023373;28;20057;-73
2022/09/11 00:14:00;;;;;;;9.90;3.28;;;26.20;99.90;;;;;;5023110;28;20029;-73
2022/09/11 00:16:34;;;;;;;7.93;3.00;;;26.20;99.90;;;;;;5055227;28;20056;-72
2022/09/11 00:19:09;;;;;;;6.82;2.70;;;26.20;99.90;;;;;;5041673;28;20034;-72
2022/09/11 00:21:37;;;;;;;7.45;2.42;;;26.20;99.90;;;;;;5007646;28;20068;-77
2022/09/11 00:24:08;;;;;;;12.68;3.85;;;26.20;99.90;;;;;;5022424;28;20033;-71
2022/09/11 00:26:37;;;;;;;9.63;2.53;;;26.20;99.90;;;;;;5040600;28;20055;-71
2022/09/11 00:29:04;;;;;;;8.50;2.83;;;26.20;99.90;;;;;;5026517;28;20056;-71
2022/09/11 00:31:33;;;;;;;9.80;2.58;;;26.20;99.90;;;;;;5039879;28;20475;-72
2022/09/11 00:34:00;;;;;;;6.38;2.75;;;26.20;99.90;;;;;;5038805;28;20037;-73
2022/09/11 00:36:35;;;;;;;4.75;2.80;;;26.20;99.90;;;;;;5038314;28;20120;-73
2022/09/11 00:39:02;;;;;;;6.35;2.67;;;26.10;99.90;;;;;;5025824;28;20084;-71
2022/09/11 00:41:35;;;;;;;11.05;2.85;;;26.10;99.90;;;;;;5026469;28;20065;-74
2022/09/11 00:44:17;;;;;;;9.57;3.50;;;26.10;99.90;;;;;;5027431;28;20046;-73
2022/09/11 00:46:49;;;;;;;10.23;4.10;;;26.20;99.90;;;;;;5031936;28;20064;-73
2022/09/11 00:49:23;;;;;;;10.48;2.60;;;26.10;99.90;;;;;;5030011;28;20072;-73
2022/09/11 00:52:07;;;;;;;6.68;2.63;;;26.10;99.90;;;;;;5029070;28;20061;-72
2022/09/11 00:54:49;;;;;;;5.88;2.75;;;26.10;99.90;;;;;;5033052;28;20593;-74
2022/09/11 00:57:25;;;;;;;5.85;2.67;;;26.10;99.90;;;;;;5016090;28;20044;-71
2022/09/11 00:59:57;;;;;;;5.60;2.20;;;26.10;99.90;;;;;;5029443;28;20053;-71
2022/09/11 01:02:27;;;;;;;5.88;2.10;;;26.10;99.90;;;;;;5028784;28;20081;-72
2022/09/11 01:04:56;;;;;;;7.50;3.10;;;26.10;99.90;;;;;;5007293;28;20096;-71
2022/09/11 01:07:25;;;;;;;11.10;3.22;;;26.10;99.90;;;;;;5012164;28;20403;-73
2022/09/11 01:09:54;;;;;;;3.78;2.05;;;26.10;99.90;;;;;;5017805;28;20098;-71
2022/09/11 01:12:45;;;;;;;7.97;2.40;;;26.10;99.90;;;;;;5028008;28;20095;-71
2022/09/11 01:15:24;;;;;;;4.25;2.30;;;26.10;99.90;;;;;;5033985;28;20045;-72
2022/09/11 01:18:13;;;;;;;4.50;2.08;;;26.10;99.90;;;;;;5025609;28;20136;-71
2022/09/11 01:21:19;;;;;;;12.13;3.65;;;26.00;99.90;;;;;;5037465;28;20116;-72
2022/09/11 01:24:15;;;;;;;10.05;2.20;;;26.00;99.90;;;;;;5018200;28;20048;-71
2022/09/11 01:27:09;;;;;;;4.93;2.20;;;26.00;99.90;;;;;;5025934;28;20816;-71
2022/09/11 01:29:48;;;;;;;4.82;1.92;;;25.90;99.90;;;;;;5005694;28;20045;-72
2022/09/11 01:32:23;;;;;;;4.88;2.90;;;25.90;99.90;;;;;;5017341;28;20047;-71
2022/09/11 01:35:07;;;;;;;8.43;2.30;;;25.90;99.90;;;;;;5012572;28;20045;-72
2022/09/11 01:38:09;;;;;;;6.80;2.40;;;25.90;99.90;;;;;;5029512;28;20139;-71
2022/09/11 01:40:58;;;;;;;4.03;2.05;;;25.90;99.90;;;;;;5011815;28;20052;-72
2022/09/11 01:43:36;;;;;;;10.55;2.40;;;25.80;99.90;;;;;;4995924;28;20527;-71
2022/09/11 01:46:06;;;;;;;4.15;1.88;;;25.80;99.90;;;;;;5011795;28;20053;-71
2022/09/11 01:48:48;;;;;;;5.20;1.83;;;25.80;99.90;;;;;;5029172;28;20056;-71
2022/09/11 01:51:24;;;;;;;3.72;2.25;;;25.70;99.90;;;;;;5028429;28;20061;-71
2022/09/11 01:53:53;;;;;;;3.75;2.13;;;25.70;99.90;;;;;;5028093;28;20053;-72
2022/09/11 01:56:25;;;;;;;3.45;1.67;;;25.70;99.90;;;;;;5012404;28;20163;-71
2022/09/11 01:58:59;;;;;;;4.25;1.88;;;25.60;99.90;;;;;;5012520;28;20052;-73
2022/09/11 02:01:34;;;;;;;4.90;2.13;;;25.60;99.90;;;;;;4996734;28;20053;-72
2022/09/11 02:04:28;;;;;;;4.47;1.90;;;25.60;99.90;;;;;;5012353;28;20148;-73
2022/09/11 02:07:08;;;;;;;5.00;1.97;;;25.60;99.90;;;;;;4996929;28;20053;-71
2022/09/11 02:09:58;;;;;;;7.95;2.38;;;25.60;99.90;;;;;;5012296;28;20064;-72
2022/09/11 02:12:40;;;;;;;5.25;2.47;;;25.60;99.90;;;;;;5012159;28;20056;-71
2022/09/11 02:15:12;;;;;;;3.30;1.45;;;25.50;99.90;;;;;;4995932;28;20044;-71
2022/09/11 02:17:47;;;;;;;4.73;1.90;;;25.50;99.90;;;;;;4995986;28;20053;-72
2022/09/11 02:20:15;;;;;;;4.68;1.60;;;25.50;99.90;;;;;;5028473;28;20582;-71
2022/09/11 02:22:43;;;;;;;2.78;1.90;;;25.40;99.90;;;;;;5012237;28;20041;-72
2022/09/11 02:25:12;;;;;;;3.58;2.05;;;25.40;99.90;;;;;;5011915;28;20150;-72
2022/09/11 02:27:40;;;;;;;4.70;2.00;;;25.40;99.90;;;;;;5029566;28;20045;-71
2022/09/11 02:30:08;;;;;;;4.20;1.85;;;25.40;99.90;;;;;;5027559;28;20084;-71
2022/09/11 02:32:39;;;;;;;3.78;1.63;;;25.40;99.90;;;;;;5028470;28;20389;-70
2022/09/11 02:35:10;;;;;;;4.88;1.92;;;25.30;99.90;;;;;;4996072;28;20197;-73
2022/09/11 02:37:48;;;;;;;3.75;2.13;;;25.30;99.90;;;;;;5027778;28;20491;-71
2022/09/11 02:40:22;;;;;;;4.20;2.38;;;25.30;99.90;;;;;;5029555;28;20463;-71
2022/09/11 02:43:18;;;;;;;3.85;1.85;;;25.30;99.90;;;;;;5031421;28;20045;-72
2022/09/11 02:45:53;;;;;;;6.37;1.80;;;25.30;99.90;;;;;;5048024;28;20178;-71
2022/09/11 02:48:30;;;;;;;3.60;2.00;;;25.30;99.90;;;;;;5031364;28;20118;-74
2022/09/11 02:51:14;;;;;;;4.57;1.80;;;25.30;99.90;;;;;;5015302;28;20151;-71
2022/09/11 02:53:48;;;;;;;3.63;1.63;;;25.20;99.90;;;;;;5048379;28;20056;-73
2022/09/11 02:56:45;;;;;;;3.35;1.65;;;25.20;99.90;;;;;;5015689;28;20052;-71
2022/09/11 02:59:25;;;;;;;3.30;1.50;;;25.20;99.90;;;;;;5048369;28;20045;-71
2022/09/11 03:01:57;;;;;;;2.90;1.55;;;25.20;99.90;;;;;;5024678;28;20151;-71
2022/09/11 03:04:25;;;;;;;3.60;2.00;;;25.10;99.90;;;;;;5032034;28;20083;-71
2022/09/11 03:06:56;;;;;;;4.97;1.70;;;25.10;99.90;;;;;;5047913;28;20048;-71
2022/09/11 03:09:23;;;;;;;3.20;1.42;;;25.10;99.90;;;;;;5047885;28;20045;-75
2022/09/11 03:11:55;;;;;;;3.42;1.52;;;25.10;99.90;;;;;;5014950;28;20057;-72
2022/09/11 03:14:22;;;;;;;5.00;1.92;;;25.10;99.90;;;;;;5031145;28;20045;-71
2022/09/11 03:16:50;;;;;;;4.35;1.48;;;25.10;99.90;;;;;;5047656;28;20037;-71
2022/09/11 03:19:18;;;;;;;7.78;1.73;;;25.10;99.90;;;;;;5031209;28;20056;-72
2022/09/11 03:21:46;;;;;;;4.07;2.25;;;25.10;99.90;;;;;;5031028;28;20056;-72
2022/09/11 03:24:15;;;;;;;4.03;1.70;;;25.10;99.60;;;;;;5031385;28;20056;-71
2022/09/11 03:26:45;;;;;;;5.55;1.50;;;25.10;99.50;;;;;;5031505;28;20103;-72
2022/09/11 03:29:15;;;;;;;2.35;1.77;;;25.20;99.40;;;;;;5048043;28;20041;-71
2022/09/11 03:31:43;;;;;;;3.70;1.52;;;25.20;99.40;;;;;;5031539;28;20052;-71
2022/09/11 03:34:11;;;;;;;2.47;1.42;;;25.20;99.40;;;;;;5047152;28;20045;-71
2022/09/11 03:36:40;;;;;;;2.50;1.67;;;25.20;99.50;;;;;;5027934;28;20120;-72
2022/09/11 03:39:07;;;;;;;4.60;1.40;;;25.20;99.50;;;;;;5011272;28;20057;-71
2022/09/11 03:41:35;;;;;;;4.03;2.03;;;25.10;99.40;;;;;;5011006;28;20510;-71
2022/09/11 03:44:04;;;;;;;3.13;1.15;;;25.10;99.40;;;;;;5028185;28;20046;-71
2022/09/11 03:46:31;;;;;;;2.75;1.70;;;25.10;99.30;;;;;;5027402;28;20392;-73
2022/09/11 03:48:59;;;;;;;2.08;1.48;;;25.00;99.30;;;;;;5027844;28;20057;-72
2022/09/11 03:51:30;;;;;;;5.20;1.55;;;25.00;99.40;;;;;;5027694;28;20577;-71
2022/09/11 03:54:00;;;;;;;2.67;1.50;;;25.00;99.50;;;;;;5028250;28;20067;-73
2022/09/11 03:56:30;;;;;;;6.25;1.90;;;24.90;99.60;;;;;;5027183;28;20044;-72
2022/09/11 03:59:01;;;;;;;4.47;1.83;;;24.90;99.60;;;;;;5010886;28;20041;-71
2022/09/11 04:01:30;;;;;;;5.70;2.00;;;24.80;99.60;;;;;;5011112;28;20033;-71
2022/09/11 04:03:58;;;;;;;3.33;2.00;;;24.80;99.60;;;;;;5027052;28;20037;-71
2022/09/11 04:06:39;;;;;;;3.63;1.42;;;24.80;99.60;;;;;;5010764;28;20041;-72
2022/09/11 04:09:07;;;;;;;3.25;1.50;;;24.70;99.70;;;;;;4994393;28;20069;-72
2022/09/11 04:11:37;;;;;;;3.55;1.70;;;24.70;99.90;;;;;;5010442;28;20561;-71
2022/09/11 04:14:15;;;;;;;6.15;2.13;;;24.70;99.90;;;;;;5010542;28;20068;-71
2022/09/11 04:16:43;;;;;;;2.63;1.30;;;24.60;99.90;;;;;;5010537;28;20053;-73
2022/09/11 04:19:12;;;;;;;3.47;1.77;;;24.60;99.90;;;;;;5010655;28;20034;-71
2022/09/11 04:21:42;;;;;;;5.68;1.92;;;24.60;99.90;;;;;;5010612;28;20134;-71
2022/09/11 04:24:09;;;;;;;3.95;1.58;;;24.60;99.90;;;;;;5004048;28;20925;-72
2022/09/11 04:26:37;;;;;;;3.67;1.60;;;24.50;99.90;;;;;;5010607;28;20045;-72
2022/09/11 04:29:11;;;;;;;2.53;1.70;;;24.50;99.90;;;;;;5026844;28;20057;-71
2022/09/11 04:31:40;;;;;;;3.65;1.92;;;24.50;99.80;;;;;;4994205;28;20075;-71
2022/09/11 04:34:10;;;;;;;5.13;1.90;;;24.50;99.80;;;;;;5010033;28;20045;-71
2022/09/11 04:36:38;;;;;;;3.50;2.05;;;24.50;99.80;;;;;;5010678;28;20045;-71
2022/09/11 04:39:10;;;;;;;3.25;2.28;;;24.50;99.90;;;;;;5026202;28;20148;-71
2022/09/11 04:41:37;;;;;;;2.50;1.70;;;24.60;99.90;;;;;;5026746;28;20065;-73
2022/09/11 04:44:05;;;;;;;2.67;1.98;;;24.60;99.70;;;;;;5026740;28;20454;-73
2022/09/11 04:46:42;;;;;;;6.25;2.05;;;24.60;99.60;;;;;;5010179;28;20049;-71
2022/09/11 04:49:10;;;;;;;5.25;1.80;;;24.70;99.40;;;;;;5026818;28;20038;-72
2022/09/11 04:51:39;;;;;;;5.68;2.53;;;24.80;99.20;;;;;;5026795;28;20064;-72
2022/09/11 04:54:14;;;;;;;4.60;1.90;;;24.80;99.00;;;;;;5028339;28;20662;-72
2022/09/11 04:56:41;;;;;;;2.67;1.65;;;25.00;98.80;;;;;;5031582;28;20064;-71
2022/09/11 04:59:16;;;;;;;2.40;1.50;;;25.10;98.60;;;;;;5030452;28;20137;-73
2022/09/11 05:01:48;;;;;;;3.13;1.30;;;25.20;98.40;;;;;;4998462;28;20046;-72
2022/09/11 05:04:19;;;;;;;3.80;1.40;;;25.30;98.20;;;;;;5013643;28;20053;-71
2022/09/11 05:06:49;;;;;;;3.45;1.70;;;25.40;98.10;;;;;;5013954;28;20510;-71
2022/09/11 05:09:18;;;;;;;4.75;1.42;;;25.60;97.80;;;;;;5030206;28;20515;-71
2022/09/11 05:11:47;;;;;;;2.78;1.40;;;25.70;97.50;;;;;;5029838;28;20042;-71
2022/09/11 05:14:15;;;;;;;2.05;1.30;;;25.80;97.30;;;;;;5029855;28;20487;-72
2022/09/11 05:16:45;;;;;;;3.63;1.20;;;25.90;97.20;;;;;;5029608;28;20419;-71
2022/09/11 05:19:15;;;;;;;4.28;1.58;;;26.10;96.90;;;;;;5029794;28;20042;-71
2022/09/11 05:21:44;;;;;;;3.25;1.95;;;26.20;96.70;;;;;;5008285;28;20056;-74
2022/09/11 05:24:13;;;;;;;1.75;1.40;;;26.30;96.50;;;;;;5013157;28;20097;-71
2022/09/11 05:26:41;;;;;;;3.38;1.60;;;26.40;96.20;;;;;;5029593;28;20041;-71
2022/09/11 05:29:15;;;;;;;3.78;1.30;;;26.60;96.00;;;;;;4997253;28;20056;-71
2022/09/11 05:32:00;;;;;;;5.60;1.73;;;26.70;95.80;;;;;;5014953;28;20108;-71
2022/09/11 05:34:28;;;;;;;3.53;1.40;;;26.90;95.50;;;;;;5029507;28;20492;-71
2022/09/11 05:36:57;;;;;;;3.85;1.42;;;27.00;95.30;;;;;;5029506;28;20052;-71
2022/09/11 05:39:28;;;;;;;4.80;2.15;;;27.10;95.10;;;;;;5029397;28;20076;-71
2022/09/11 05:41:56;;;;;;;1.88;0.90;;;27.20;94.90;;;;;;4997023;28;20427;-73
2022/09/11 05:44:29;;;;;;;5.28;1.02;;;27.40;94.50;;;;;;5029424;28;20050;-72
2022/09/11 05:46:57;;;;;;;2.95;1.30;;;27.50;94.40;;;;;;5012908;28;20053;-72
2022/09/11 05:49:25;;;;;;;2.25;1.08;;;27.70;94.20;;;;;;5012982;28;20452;-71
2022/09/11 05:51:53;;;;;;;2.22;1.20;;;27.80;94.10;;;;;;5012256;28;20060;-72
2022/09/11 05:54:20;;;;;;;2.30;1.10;;;28.00;93.80;;;;;;5030184;28;20045;-71
2022/09/11 05:56:48;;;;;;;3.53;1.20;;;28.10;93.50;;;;;;5028706;28;20134;-72
2022/09/11 05:59:22;;;;;;;4.57;1.83;;;28.20;93.10;;;;;;5013041;28;20179;-71
2022/09/11 06:01:50;;;;;;;4.55;2.10;;;28.40;92.90;;;;;;4995871;28;20053;-73
2022/09/11 06:04:28;;;;;;;3.72;1.48;;;28.50;92.80;;;;;;5013706;28;20041;-71
2022/09/11 06:06:57;;;;;;;3.53;1.40;;;28.60;92.60;;;;;;5011727;28;20053;-71
2022/09/11 06:09:26;;;;;;;1.92;1.05;;;28.70;92.50;;;;;;5012303;28;20049;-71
2022/09/11 06:11:55;;;;;;;4.88;1.70;;;28.80;92.40;;;;;;5027394;28;20040;-73
2022/09/11 06:14:24;;;;;;;7.15;1.70;;;29.00;92.10;;;;;;5019267;28;20049;-72
2022/09/11 06:16:53;;;;;;;3.55;1.52;;;29.10;92.10;;;;;;5058113;28;20054;-71
2022/09/11 06:19:21;;;;;;;3.53;1.58;;;29.20;92.00;;;;;;5041009;28;20068;-72
2022/09/11 06:21:49;;;;;;;3.70;1.70;;;29.40;91.90;;;;;;5015153;28;20452;-74
2022/09/11 06:24:27;;;;;;;2.17;1.15;;;29.50;91.60;;;;;;5038084;28;20144;-72
2022/09/11 06:26:57;;;;;;;2.25;1.13;;;29.60;91.40;;;;;;5040369;28;20044;-71
2022/09/11 06:29:26;;;;;;;3.47;1.27;;;29.60;91.20;;;;;;5047487;28;20615;-72
2022/09/11 06:31:54;;;;;;;3.08;1.30;;;29.70;91.10;;;;;;5010118;28;20041;-72
2022/09/11 06:34:26;;;;;;;1.90;1.30;;;29.80;91.10;;;;;;5027156;28;20118;-71
2022/09/11 06:36:56;;;;;;;2.78;1.40;;;29.80;90.90;;;;;;5009518;28;20112;-71
2022/09/11 06:39:25;;;;;;;3.30;1.58;;;30.00;90.90;;;;;;5026854;28;20762;-70
2022/09/11 06:41:54;;;;;;;3.00;1.40;;;30.00;90.90;;;;;;5027077;28;20143;-71
2022/09/11 06:44:27;;;;;;;3.53;1.70;;;30.10;90.90;;;;;;5030361;28;20071;-71
2022/09/11 06:46:58;;;;;;;4.72;1.38;;;30.20;91.00;;;;;;5013256;28;20075;-72
2022/09/11 06:49:26;;;;;;;3.90;1.55;;;30.40;90.90;;;;;;5047138;28;20056;-72
2022/09/11 06:52:33;;;;;;;3.67;1.38;;;30.50;91.00;;;;;;5045421;28;20048;-71
2022/09/11 06:55:13;;;;;;;2.88;1.40;;;30.60;90.80;;;;;;5015551;28;20044;-71
2022/09/11 06:57:48;;;;;;;6.85;2.05;;;30.70;90.50;;;;;;5049690;28;20105;-75
2022/09/11 07:00:21;;;;;;;3.63;1.63;;;30.80;90.40;;;;;;5041069;28;20042;-71
2022/09/11 07:02:51;;;;;;;2.85;1.35;;;30.90;90.20;;;;;;5026681;28;20491;-75
2022/09/11 07:05:21;;;;;;;2.00;1.20;;;30.90;90.10;;;;;;5011394;28;20187;-72
2022/09/11 07:07:51;;;;;;;3.80;1.55;;;31.00;90.10;;;;;;4993969;28;20215;-77
2022/09/11 07:10:20;;;;;;;3.78;1.58;;;31.00;90.20;;;;;;5033877;28;20049;-71
2022/09/11 07:12:53;;;;;;;7.03;1.65;;;31.10;90.20;;;;;;5047037;28;20579;-72
2022/09/11 07:15:22;;;;;;;4.07;1.63;;;31.20;90.30;;;;;;5028921;28;20126;-71
2022/09/11 07:17:50;;;;;;;4.70;1.70;;;31.30;89.70;;;;;;5029648;28;20151;-76
2022/09/11 07:20:19;;;;;;;3.92;1.40;;;31.40;89.60;;;;;;5031168;28;20429;-71
2022/09/11 07:22:47;;;;;;;2.58;1.27;;;31.40;89.30;;;;;;5028857;28;20059;-72
2022/09/11 07:25:16;;;;;;;3.15;1.40;;;31.50;88.80;;;;;;5027655;28;20580;-73
2022/09/11 07:27:45;;;;;;;2.83;1.05;;;31.60;88.80;;;;;;5011721;28;20163;-71
2022/09/11 07:30:14;;;;;;;4.43;1.52;;;31.60;88.10;;;;;;5027377;28;20048;-72
2022/09/11 07:32:44;;;;;;;3.22;1.10;;;31.70;88.20;;;;;;5011630;28;20084;-74
2022/09/11 07:35:20;;;;;;;2.50;1.27;;;31.70;86.90;;;;;;5029171;28;20106;-71
2022/09/11 07:37:51;;;;;;;3.42;1.90;;;31.80;87.10;;;;;;5036155;28;20045;-72
2022/09/11 07:40:24;;;;;;;3.95;1.67;;;31.90;86.40;;;;;;5027529;28;20113;-71
2022/09/11 07:42:52;;;;;;;3.70;1.30;;;32.00;86.30;;;;;;5027458;28;20388;-72
2022/09/11 07:45:20;;;;;;;2.78;1.35;;;32.00;85.80;;;;;;5010904;28;20144;-71
2022/09/11 07:47:49;;;;;;;3.70;1.88;;;32.10;87.10;;;;;;5030741;28;20072;-71
2022/09/11 07:50:16;;;;;;;5.65;1.60;;;32.20;86.00;;;;;;5046520;28;20049;-74
2022/09/11 07:52:44;;;;;;;4.78;1.42;;;32.20;86.00;;;;;;5047319;28;20381;-71
2022/09/11 07:55:13;;;;;;;2.65;1.25;;;32.20;85.70;;;;;;5047437;28;20103;-72
2022/09/11 07:57:41;;;;;;;6.00;1.85;;;32.30;85.60;;;;;;5048387;28;20096;-71
2022/09/11 08:00:10;;;;;;;3.40;1.30;;;32.30;86.20;;;;;;5030221;28;20836;-73
2022/09/11 08:02:47;;;;;;;2.70;1.30;;;32.30;84.90;;;;;;5048548;28;20099;-71
2022/09/11 08:05:26;;;;;;;2.75;1.38;;;32.30;84.50;;;;;;5026624;28;20059;-72
2022/09/11 08:07:54;;;;;;;4.18;1.65;;;32.40;84.10;;;;;;5014299;28;20048;-72
2022/09/11 08:10:22;;;;;;;5.43;2.08;;;32.50;83.70;;;;;;5027350;28;20045;-72
2022/09/11 08:12:53;;;;;;;5.10;1.85;;;32.50;83.40;;;;;;5026446;28;20555;-72
2022/09/11 08:15:25;;;;;;;5.35;1.73;;;32.60;83.80;;;;;;5025558;28;20136;-73
2022/09/11 08:17:54;;;;;;;7.93;1.80;;;32.60;83.10;;;;;;5010291;28;20426;-71
2022/09/11 08:20:22;;;;;;;6.53;3.28;;;32.60;82.30;;;;;;5026604;28;20049;-72
2022/09/11 08:22:50;;;;;;;5.60;1.85;;;32.70;82.70;;;;;;5026779;28;20049;-71
2022/09/11 08:25:18;;;;;;;5.38;1.90;;;32.80;82.60;;;;;;5026720;28;20487;-71
2022/09/11 08:27:46;;;;;;;6.15;1.80;;;32.80;81.90;;;;;;5026782;28;20045;-72
2022/09/11 08:30:17;;;;;;;8.15;1.85;;;32.90;82.50;;;;;;5028424;28;20819;-72
2022/09/11 08:32:45;;;;;;;3.42;1.60;;;32.90;81.80;;;;;;5028966;28;20123;-74
2022/09/11 08:35:13;;;;;;;4.88;2.38;;;32.90;81.10;;;;;;5014209;28;20567;-72
2022/09/11 08:37:42;;;;;;;7.22;1.83;;;32.90;81.20;;;;;;5030356;28;20060;-71
2022/09/11 08:40:11;;;;;;;6.15;1.40;;;33.00;81.60;;;;;;5030050;28;20136;-71
2022/09/11 08:42:43;;;;;;;4.22;1.42;;;33.00;81.50;;;;;;5030303;28;20103;-71
2022/09/11 08:45:17;;;;;;;4.07;1.20;;;33.00;80.60;;;;;;5030398;28;20049;-71
2022/09/11 08:47:54;;;;;;;5.90;1.60;;;33.00;80.90;;;;;;5014226;28;20041;-71
2022/09/11 08:50:30;;;;;;;5.57;1.83;;;33.00;80.70;;;;;;5014228;28;20049;-71
2022/09/11 08:53:01;;;;;;;4.20;2.13;;;33.00;80.90;;;;;;5014235;28;20385;-72
2022/09/11 08:55:38;;;;;;;3.73;1.40;;;33.00;80.60;;;;;;5030728;28;20368;-71
2022/09/11 08:58:30;;;;;;;4.10;1.15;;;33.00;80.60;;;;;;5014610;28;20065;-72
2022/09/11 09:01:28;;;;;;;7.10;1.98;;;32.80;79.90;;;;;;5030514;28;20046;-74
2022/09/11 09:04:06;;;;;;;3.72;1.35;;;32.90;81.10;;;;;;5030060;28;20754;-75
2022/09/11 09:07:00;;;;;;;2.33;1.40;;;32.90;80.60;;;;;;5043443;28;20041;-72
2022/09/11 09:09:46;;;;;;;2.28;1.27;;;33.00;79.90;;;;;;5050211;28;20045;-72
2022/09/11 09:13:01;;;;;;;3.70;1.70;;;32.90;79.80;;;;;;5050052;28;20091;-72
2022/09/11 09:16:02;;;;;;;3.97;1.52;;;33.00;78.80;;;;;;5049831;28;20059;-72
2022/09/11 09:19:09;;;;;;;3.70;1.38;;;33.10;79.70;;;;;;5049699;28;20539;-73
2022/09/11 09:21:41;;;;;;;2.65;1.40;;;33.20;78.90;;;;;;5033741;28;20053;-70
2022/09/11 09:24:18;;;;;;;4.68;1.48;;;33.20;79.00;;;;;;5049679;28;20045;-71
2022/09/11 09:26:58;;;;;;;3.08;1.35;;;33.20;79.50;;;;;;5050048;28;20064;-71
2022/09/11 09:29:31;;;;;;;3.95;1.30;;;33.20;77.90;;;;;;5032825;28;20483;-71
2022/09/11 09:32:04;;;;;;;3.92;1.23;;;33.20;78.60;;;;;;5049533;28;20045;-73
2022/09/11 09:34:37;;;;;;;6.75;1.45;;;33.30;78.90;;;;;;5049586;28;20098;-71
2022/09/11 09:37:20;;;;;;;4.22;2.08;;;33.30;79.20;;;;;;5033256;28;20053;-73
2022/09/11 09:39:49;;;;;;;3.22;1.40;;;33.00;77.20;;;;;;5015709;28;20475;-72
2022/09/11 09:42:27;;;;;;;3.70;1.25;;;32.90;76.90;;;;;;5049069;28;20037;-72
2022/09/11 09:44:57;;;;;;;3.97;1.33;;;33.00;77.60;;;;;;5033244;28;20033;-74
2022/09/11 09:47:26;;;;;;;4.07;1.23;;;33.00;77.40;;;;;;5032844;28;20057;-73
2022/09/11 09:49:57;;;;;;;4.00;1.35;;;32.90;77.20;;;;;;5032759;28;20059;-71
2022/09/11 09:52:32;;;;;;;3.72;1.33;;;33.00;77.80;;;;;;5050682;28;20041;-71
2022/09/11 09:55:03;;;;;;;6.85;1.48;;;33.00;78.50;;;;;;5049009;28;20056;-71
2022/09/11 09:57:35;;;;;;;3.72;1.40;;;33.10;76.50;;;;;;5049206;28;20037;-71
2022/09/11 10:00:16;;;;;;;3.72;1.33;;;33.10;77.90;;;;;;5047451;28;20123;-71
2022/09/11 10:02:54;;;;;;;3.10;1.20;;;33.20;78.50;;;;;;5049172;28;20053;-72
2022/09/11 10:05:34;;;;;;;6.18;2.10;;;33.30;77.10;;;;;;5032825;28;20052;-71
2022/09/11 10:08:07;;;;;;;4.70;1.33;;;33.40;77.90;;;;;;5031808;28;20045;-72
2022/09/11 10:10:36;;;;;;;4.07;1.23;;;33.40;76.90;;;;;;5049004;28;20045;-71
2022/09/11 10:13:12;;;;;;;5.00;1.40;;;33.50;75.90;;;;;;5050260;28;20499;-71
2022/09/11 10:15:48;;;;;;;18.00;1.85;;;33.40;76.90;;;;;;5032434;28;20538;-70
2022/09/11 10:18:31;;;;;;;4.32;1.70;;;33.40;76.80;;;;;;5032062;28;20503;-71
2022/09/11 10:21:32;;;;;;;4.00;1.30;;;33.40;77.40;;;;;;5032338;28;20083;-71
2022/09/11 10:24:02;;;;;;;5.63;1.55;;;33.50;75.20;;;;;;5032277;28;20391;-71
2022/09/11 10:26:32;;;;;;;3.70;1.30;;;33.40;76.00;;;;;;5050136;28;20473;-71
2022/09/11 10:29:24;;;;;;;8.55;1.88;;;33.20;74.90;;;;;;5049991;28;20044;-71
2022/09/11 10:32:04;;;;;;;6.32;1.25;;;33.10;74.70;;;;;;5048434;28;20148;-71
2022/09/11 10:34:39;;;;;;;2.85;1.67;;;32.80;76.60;;;;;;5032233;28;20120;-71
2022/09/11 10:37:13;;;;;;;3.92;1.30;;;32.80;75.60;;;;;;5048438;28;20762;-71
2022/09/11 10:39:45;;;;;;;9.30;1.92;;;32.80;75.00;;;;;;5048256;28;20115;-71
2022/09/11 10:42:22;;;;;;;3.75;1.30;;;33.00;76.20;;;;;;5031881;28;20057;-71
2022/09/11 10:44:51;;;;;;;2.72;1.40;;;33.00;76.50;;;;;;5048024;28;20051;-71
2022/09/11 10:47:31;;;;;;;4.88;1.30;;;33.00;76.50;;;;;;5047928;28;20123;-72
2022/09/11 10:50:21;;;;;;;2.88;1.25;;;33.00;76.50;;;;;;5047717;28;20048;-71
2022/09/11 10:53:02;;;;;;;2.45;1.35;;;33.10;75.50;;;;;;5031412;28;20045;-71
2022/09/11 10:55:37;;;;;;;6.97;1.88;;;33.10;75.40;;;;;;5031587;28;20390;-71
2022/09/11 10:58:22;;;;;;;7.90;1.55;;;33.00;76.20;;;;;;5046633;28;20169;-71
2022/09/11 11:00:50;;;;;;;5.70;1.48;;;33.10;75.80;;;;;;5030887;28;20471;-73
2022/09/11 11:03:23;;;;;;;3.05;1.45;;;33.20;74.90;;;;;;5031186;28;20190;-73
2022/09/11 11:06:27;;;;;;;6.15;1.30;;;33.20;75.30;;;;;;5047370;28;20045;-72
2022/09/11 11:09:06;;;;;;;2.45;1.48;;;33.20;75.40;;;;;;5048678;28;20110;-69
2022/09/11 11:11:54;;;;;;;5.57;1.30;;;33.00;75.40;;;;;;5047328;28;20048;-68
2022/09/11 11:14:25;;;;;;;3.70;1.80;;;33.10;76.30;;;;;;5030673;28;20053;-69
2022/09/11 11:17:17;;;;;;;5.82;2.30;;;33.10;76.40;;;;;;5048254;28;20049;-69
2022/09/11 11:19:55;;;;;;;2.95;1.27;;;33.10;76.50;;;;;;5046568;28;20076;-71
2022/09/11 11:22:46;;;;;;;2.63;1.33;;;33.10;76.00;;;;;;5046645;28;20045;-69
2022/09/11 11:25:47;;;;;;;4.97;1.48;;;33.20;75.60;;;;;;5030452;28;20068;-69
2022/09/11 11:28:45;;;;;;;2.67;1.10;;;32.60;75.80;;;;;;5046680;28;20045;-69
2022/09/11 11:31:33;;;;;;;4.20;1.55;;;32.70;77.70;;;;;;5013628;28;20059;-71
2022/09/11 11:34:26;;;;;;;4.82;1.23;;;32.60;78.40;;;;;;5029996;28;20068;-70
2022/09/11 11:37:06;;;;;;;3.83;1.35;;;32.70;78.00;;;;;;5030408;28;20070;-72
2022/09/11 11:39:57;;;;;;;3.17;1.30;;;32.60;77.70;;;;;;5029758;28;20127;-68
2022/09/11 11:42:28;;;;;;;3.13;1.45;;;32.50;78.20;;;;;;5046956;28;20089;-74
2022/09/11 11:45:19;;;;;;;2.75;1.33;;;32.60;78.20;;;;;;5047194;28;20049;-72
2022/09/11 11:47:48;;;;;;;2.10;1.17;;;32.30;78.20;;;;;;5048304;28;20376;-71
2022/09/11 11:50:25;;;;;;;2.90;1.20;;;31.80;78.00;;;;;;5048524;28;20459;-72
2022/09/11 11:53:11;;;;;;;3.42;1.20;;;31.70;78.70;;;;;;5046974;28;20135;-74
2022/09/11 11:55:58;;;;;;;3.75;1.48;;;31.70;80.20;;;;;;5029872;28;20106;-70
2022/09/11 11:58:36;;;;;;;4.35;2.25;;;31.90;83.40;;;;;;5030545;28;20061;-72
2022/09/11 12:01:09;;;;;;;5.82;2.10;;;31.80;83.20;;;;;;5046509;28;20071;-71
2022/09/11 12:04:10;;;;;;;3.55;1.70;;;31.90;85.10;;;;;;5029663;28;20048;-72
2022/09/11 12:06:37;;;;;;;5.20;1.90;;;31.90;86.40;;;;;;5044899;28;20045;-71
2022/09/11 12:09:09;;;;;;;4.10;2.10;;;32.00;86.50;;;;;;5046803;28;20049;-72
2022/09/11 12:11:38;;;;;;;7.20;2.78;;;31.80;86.20;;;;;;5046698;28;20048;-70
2022/09/11 12:14:19;;;;;;;5.10;1.73;;;31.70;86.20;;;;;;5045962;28;20041;-71
2022/09/11 12:16:49;;;;;;;4.60;2.17;;;31.50;86.60;;;;;;5030050;28;20076;-70
2022/09/11 12:19:24;;;;;;;5.28;2.13;;;31.30;86.00;;;;;;5048100;28;20048;-71
2022/09/11 12:21:51;;;;;;;4.43;2.15;;;31.10;86.50;;;;;;5029919;28;20483;-73
2022/09/11 12:24:44;;;;;;;4.25;2.00;;;31.00;86.80;;;;;;5029585;28;20041;-71
2022/09/11 12:27:53;;;;;;;5.65;1.90;;;30.90;87.40;;;;;;5029873;28;20593;-71
2022/09/11 12:30:25;;;;;;;7.97;2.20;;;30.90;87.50;;;;;;5029951;28;20053;-73
2022/09/11 12:32:55;;;;;;;3.88;1.60;;;30.90;87.40;;;;;;5047744;28;20060;-72
2022/09/11 12:35:42;;;;;;;6.25;2.42;;;30.90;87.10;;;;;;5029932;28;20088;-73
2022/09/11 12:38:16;;;;;;;4.65;1.83;;;30.90;87.10;;;;;;5046945;28;21018;-71
2022/09/11 12:40:56;;;;;;;5.72;1.88;;;30.90;87.20;;;;;;5046234;28;20044;-73
2022/09/11 12:43:48;;;;;;;3.58;1.75;;;31.00;87.40;;;;;;5046112;28;20039;-72
2022/09/11 12:46:20;;;;;;;4.07;1.30;;;31.00;86.80;;;;;;5039061;28;20118;-71
2022/09/11 12:48:53;;;;;;;16.75;2.40;;;31.00;86.80;;;;;;5023848;28;20103;-71
2022/09/11 12:51:41;;;;;;;4.25;2.10;;;30.90;87.20;;;;;;5009954;28;20061;-71
2022/09/11 12:54:12;;;;;;;5.60;1.55;;;30.90;87.20;;;;;;5026038;28;20502;-71
2022/09/11 12:56:46;;;;;;;4.25;1.75;;;30.90;86.80;;;;;;5010012;28;20046;-71
2022/09/11 12:59:31;;;;;;;5.30;2.08;;;30.80;87.30;;;;;;5010194;28;20051;-71
2022/09/11 13:02:01;;;;;;;3.80;2.00;;;30.70;87.30;;;;;;5027044;28;20085;-71
2022/09/11 13:04:32;;;;;;;3.67;1.95;;;30.70;87.40;;;;;;5009919;28;20381;-71
2022/09/11 13:07:04;;;;;;;3.92;1.80;;;30.80;87.10;;;;;;5025915;28;20049;-71
2022/09/11 13:09:38;;;;;;;4.10;1.48;;;30.70;87.50;;;;;;5026318;28;20773;-71
2022/09/11 13:12:24;;;;;;;7.05;2.20;;;30.80;87.50;;;;;;5027143;28;20037;-71
2022/09/11 13:14:56;;;;;;;7.00;1.60;;;30.80;87.50;;;;;;4993796;28;20128;-71
2022/09/11 13:17:32;;;;;;;6.68;2.85;;;30.80;87.60;;;;;;4996915;28;20073;-72
2022/09/11 13:20:08;;;;;;;6.18;1.77;;;30.70;87.80;;;;;;5030440;28;20132;-72
2022/09/11 13:22:37;;;;;;;5.28;1.80;;;30.70;88.40;;;;;;5045896;28;20049;-71
2022/09/11 13:25:14;;;;;;;4.35;1.70;;;30.70;88.90;;;;;;4997209;28;20053;-72